Time;durP1;ratioP1;P1;durP2;ratioP2;P2;SDS_P1;SDS_P2;PMS_P1;PMS_P2;Temp;Humidity;BMP_temperature;BMP_pressure;BME280_temperature;BME280_humidity;BME280_pressure;Samples;Min_cycle;Max_cycle;Signal;HPM_P1;HPM_P2
2022/08/23 00:00:17;;;;;;;2.38;0.50;;;24.20;67.50;;;;;;5031319;28;20053;-72
2022/08/23 00:02:42;;;;;;;7.15;0.63;;;24.20;67.50;;;;;;5029847;28;20104;-73
2022/08/23 00:05:08;;;;;;;1.95;0.65;;;24.20;67.40;;;;;;5034334;28;20029;-72
2022/08/23 00:07:36;;;;;;;1.38;0.57;;;24.20;67.50;;;;;;5033669;28;20442;-72
2022/08/23 00:10:01;;;;;;;2.10;1.13;;;24.20;67.50;;;;;;5033371;28;20075;-72
2022/08/23 00:12:27;;;;;;;2.15;0.52;;;24.20;67.50;;;;;;5026207;28;20025;-72
2022/08/23 00:14:53;;;;;;;0.75;0.47;;;24.20;67.40;;;;;;5014979;28;20038;-72
2022/08/23 00:17:19;;;;;;;1.50;0.40;;;24.20;67.50;;;;;;5014888;28;20026;-72
2022/08/23 00:19:45;;;;;;;8.70;0.68;;;24.20;67.50;;;;;;5013610;28;20022;-72
2022/08/23 00:22:11;;;;;;;2.70;0.73;;;24.20;67.50;;;;;;5013508;28;20476;-72
2022/08/23 00:24:36;;;;;;;0.90;0.47;;;24.20;67.50;;;;;;5013256;28;20067;-71
2022/08/23 00:27:06;;;;;;;1.85;0.43;;;24.20;67.50;;;;;;5014774;28;20392;-72
2022/08/23 00:29:52;;;;;;;0.50;0.50;;;24.20;67.50;;;;;;5014683;28;20017;-72
2022/08/23 00:32:22;;;;;;;3.83;0.60;;;24.20;67.50;;;;;;5014377;28;20066;-72
2022/08/23 00:34:48;;;;;;;1.33;0.60;;;24.20;67.50;;;;;;5014397;28;20018;-72
2022/08/23 00:37:13;;;;;;;0.70;0.60;;;24.20;67.50;;;;;;5013454;28;20395;-72
2022/08/23 00:39:39;;;;;;;0.77;0.50;;;24.20;67.50;;;;;;5013128;28;20029;-72
2022/08/23 00:47:52;;;;;;;1.35;0.57;;;24.20;67.50;;;;;;5013259;28;20041;-72
2022/08/23 00:50:35;;;;;;;1.50;0.50;;;24.20;67.50;;;;;;5013256;28;20048;-72
2022/08/23 00:53:05;;;;;;;0.40;0.40;;;24.20;67.50;;;;;;5012976;28;20052;-72
2022/08/23 00:55:32;;;;;;;2.47;0.55;;;24.20;67.50;;;;;;5012808;28;20022;-72
2022/08/23 00:57:58;;;;;;;1.63;0.50;;;24.10;67.50;;;;;;5012969;28;20010;-72
2022/08/23 01:00:24;;;;;;;3.60;0.80;;;24.20;67.50;;;;;;5012825;28;20032;-72
2022/08/23 01:02:49;;;;;;;2.70;0.50;;;24.20;67.50;;;;;;5014093;28;20057;-72
2022/08/23 01:05:15;;;;;;;0.80;0.50;;;24.20;67.50;;;;;;5017268;28;20033;-71
2022/08/23 01:07:47;;;;;;;1.48;0.40;;;24.20;67.50;;;;;;5032512;28;20087;-71
2022/08/23 01:10:34;;;;;;;0.97;0.53;;;24.20;67.50;;;;;;5032379;28;20033;-71
2022/08/23 01:13:05;;;;;;;0.38;0.35;;;24.20;67.50;;;;;;5020653;28;20037;-71
2022/08/23 01:15:46;;;;;;;1.08;0.60;;;24.20;67.60;;;;;;5011581;28;20393;-72
2022/08/23 01:18:13;;;;;;;2.53;0.35;;;24.20;67.50;;;;;;5012662;28;20444;-72
2022/08/23 01:20:44;;;;;;;0.50;0.40;;;24.10;67.50;;;;;;5012439;28;20053;-72
2022/08/23 01:23:28;;;;;;;1.05;0.45;;;24.20;67.50;;;;;;5012226;28;20026;-72
2022/08/23 01:25:54;;;;;;;1.58;0.60;;;24.20;67.60;;;;;;5012523;28;20025;-72
2022/08/23 01:28:20;;;;;;;0.80;0.40;;;24.10;67.60;;;;;;5012453;28;20396;-72
2022/08/23 01:30:46;;;;;;;2.80;0.65;;;24.10;67.60;;;;;;5013531;28;20076;-72
2022/08/23 01:33:11;;;;;;;2.10;0.52;;;24.10;67.50;;;;;;5012111;28;20184;-72
2022/08/23 01:35:54;;;;;;;0.80;0.40;;;24.10;67.50;;;;;;5012056;28;20029;-72
2022/08/23 01:38:21;;;;;;;0.47;0.47;;;24.20;67.60;;;;;;5012168;28;20079;-72
2022/08/23 01:40:46;;;;;;;1.50;0.75;;;24.10;67.60;;;;;;5013340;28;20022;-72
2022/08/23 01:43:14;;;;;;;0.40;0.40;;;24.10;67.60;;;;;;5012185;28;20481;-72
2022/08/23 01:45:40;;;;;;;0.85;0.30;;;24.10;67.50;;;;;;5012003;28;20022;-72
2022/08/23 01:48:05;;;;;;;0.50;0.47;;;24.10;67.60;;;;;;5013261;28;20017;-72
2022/08/23 01:50:31;;;;;;;1.10;0.30;;;24.10;67.50;;;;;;5013067;28;20026;-72
2022/08/23 01:52:57;;;;;;;1.02;0.52;;;24.20;67.60;;;;;;5011780;28;20509;-72
2022/08/23 01:55:23;;;;;;;0.90;0.40;;;24.10;67.50;;;;;;5011861;28;20030;-72
2022/08/23 01:57:50;;;;;;;0.55;0.40;;;24.10;67.50;;;;;;5011740;28;20374;-72
2022/08/23 02:00:16;;;;;;;0.70;0.47;;;24.10;67.50;;;;;;5011943;28;20102;-72
2022/08/23 02:02:44;;;;;;;2.15;0.50;;;24.10;67.50;;;;;;5012864;28;20076;-72
2022/08/23 02:05:09;;;;;;;4.95;0.52;;;24.20;67.50;;;;;;5016631;28;20026;-72
2022/08/23 02:07:35;;;;;;;0.47;0.30;;;24.10;67.50;;;;;;5032454;28;20033;-72
2022/08/23 02:10:01;;;;;;;7.50;0.40;;;24.10;67.50;;;;;;5032448;28;20029;-72
2022/08/23 02:12:26;;;;;;;1.85;0.50;;;24.10;67.60;;;;;;5025692;28;20036;-72
2022/08/23 02:14:52;;;;;;;2.08;0.65;;;24.10;67.50;;;;;;5013310;28;20105;-72
2022/08/23 02:17:18;;;;;;;1.20;0.30;;;24.10;67.60;;;;;;5012245;28;20050;-72
2022/08/23 02:19:43;;;;;;;1.27;0.60;;;24.20;67.60;;;;;;5011952;28;20081;-72
2022/08/23 02:22:09;;;;;;;2.88;0.40;;;24.10;67.50;;;;;;5013026;28;20025;-72
2022/08/23 02:24:38;;;;;;;1.30;0.50;;;24.10;67.50;;;;;;5012060;28;20026;-71
2022/08/23 02:27:04;;;;;;;1.85;0.30;;;24.10;67.60;;;;;;5012971;28;20488;-71
2022/08/23 02:29:30;;;;;;;0.65;0.50;;;24.10;67.60;;;;;;5011970;28;20033;-71
2022/08/23 02:31:57;;;;;;;1.05;0.40;;;24.10;67.60;;;;;;5011516;28;20559;-71
2022/08/23 02:34:22;;;;;;;0.55;0.35;;;24.10;67.60;;;;;;5011721;28;20495;-71
2022/08/23 02:36:48;;;;;;;0.98;0.43;;;24.10;67.60;;;;;;5012682;28;20160;-71
2022/08/23 02:39:15;;;;;;;1.65;0.43;;;24.10;67.60;;;;;;5013120;28;20022;-71
2022/08/23 02:41:40;;;;;;;3.88;0.57;;;24.10;67.60;;;;;;5012842;28;20472;-71
2022/08/23 02:44:06;;;;;;;1.15;0.40;;;24.10;67.50;;;;;;5012951;28;20018;-71
2022/08/23 02:46:32;;;;;;;0.38;0.38;;;24.10;67.60;;;;;;5011640;28;20026;-71
2022/08/23 02:48:58;;;;;;;2.15;0.38;;;24.10;67.60;;;;;;5012994;28;20101;-72
2022/08/23 02:51:24;;;;;;;1.10;0.50;;;24.10;67.60;;;;;;5011342;28;20165;-72
2022/08/23 02:53:49;;;;;;;0.98;0.40;;;24.10;67.60;;;;;;5011290;28;20160;-72
2022/08/23 02:56:15;;;;;;;0.60;0.45;;;24.10;67.60;;;;;;5012836;28;20400;-72
2022/08/23 02:58:42;;;;;;;1.80;0.63;;;24.10;67.60;;;;;;5011417;28;20104;-72
2022/08/23 03:01:18;;;;;;;1.95;0.50;;;24.10;67.60;;;;;;5011570;28;20429;-72
2022/08/23 03:03:44;;;;;;;1.85;0.40;;;24.10;67.60;;;;;;5011450;28;20025;-72
2022/08/23 03:06:11;;;;;;;0.82;0.60;;;24.10;67.60;;;;;;5023091;28;20403;-72
2022/08/23 03:08:36;;;;;;;7.10;1.02;;;24.10;67.60;;;;;;5031268;28;20080;-72
2022/08/23 03:11:02;;;;;;;1.33;0.50;;;24.10;67.70;;;;;;5032099;28;20076;-72
2022/08/23 03:13:27;;;;;;;0.82;0.40;;;24.10;67.60;;;;;;5015515;28;20030;-72
2022/08/23 03:15:53;;;;;;;4.30;0.40;;;24.10;67.60;;;;;;5012743;28;20033;-72
2022/08/23 03:18:19;;;;;;;1.90;0.40;;;24.10;67.60;;;;;;5012715;28;20070;-73
2022/08/23 03:20:45;;;;;;;1.13;0.30;;;24.10;67.70;;;;;;5012454;28;20125;-72
2022/08/23 03:23:11;;;;;;;2.03;0.30;;;24.10;67.70;;;;;;5012397;28;20022;-72
2022/08/23 03:25:37;;;;;;;1.25;0.60;;;24.10;67.60;;;;;;5012525;28;20036;-72
2022/08/23 03:28:04;;;;;;;1.20;0.50;;;24.10;67.70;;;;;;5011194;28;20113;-72
2022/08/23 03:30:30;;;;;;;2.00;0.40;;;24.10;67.70;;;;;;5012500;28;20025;-72
2022/08/23 03:32:55;;;;;;;1.17;0.45;;;24.10;67.70;;;;;;5011938;28;20056;-72
2022/08/23 03:35:21;;;;;;;1.25;0.40;;;24.10;67.70;;;;;;5012364;28;20504;-72
2022/08/23 03:37:47;;;;;;;1.23;0.30;;;24.10;67.70;;;;;;5012231;28;20050;-72
2022/08/23 03:40:12;;;;;;;2.35;0.47;;;24.10;67.70;;;;;;5015956;28;20097;-72
2022/08/23 03:42:38;;;;;;;1.48;0.50;;;24.10;67.70;;;;;;5014979;28;20026;-72
2022/08/23 03:45:04;;;;;;;1.38;0.50;;;24.10;67.70;;;;;;5016069;28;20034;-72
2022/08/23 03:47:30;;;;;;;1.23;0.40;;;24.10;67.70;;;;;;5015946;28;20065;-72
2022/08/23 03:49:56;;;;;;;0.98;0.38;;;24.10;67.80;;;;;;5016000;28;20519;-72
2022/08/23 03:52:22;;;;;;;4.80;0.35;;;24.10;67.70;;;;;;5016071;28;20079;-72
2022/08/23 03:54:47;;;;;;;0.43;0.40;;;24.10;67.70;;;;;;5015866;28;20030;-72
2022/08/23 03:57:13;;;;;;;0.40;0.30;;;24.10;67.80;;;;;;5015906;28;20022;-72
2022/08/23 03:59:39;;;;;;;0.65;0.35;;;24.10;67.80;;;;;;5016003;28;20017;-72
2022/08/23 04:02:05;;;;;;;3.92;0.52;;;24.10;67.70;;;;;;5014328;28;20025;-72
2022/08/23 04:04:30;;;;;;;0.52;0.40;;;24.10;67.70;;;;;;5015908;28;20026;-72
2022/08/23 04:06:56;;;;;;;0.30;0.30;;;24.10;67.80;;;;;;5032735;28;20040;-72
2022/08/23 04:09:22;;;;;;;0.30;0.30;;;24.10;67.80;;;;;;5035735;28;20045;-72
2022/08/23 04:11:47;;;;;;;0.63;0.40;;;24.10;67.80;;;;;;5032376;28;20080;-72
2022/08/23 04:14:13;;;;;;;2.42;0.40;;;24.10;67.80;;;;;;5014400;28;20026;-72
2022/08/23 04:16:39;;;;;;;2.00;0.50;;;24.00;67.80;;;;;;5014220;28;20018;-72
2022/08/23 04:19:11;;;;;;;1.13;0.40;;;24.10;67.80;;;;;;5013823;28;20025;-72
2022/08/23 04:21:37;;;;;;;8.95;0.50;;;24.10;67.90;;;;;;5013984;28;20030;-72
2022/08/23 04:24:03;;;;;;;1.35;0.40;;;24.00;67.80;;;;;;5013756;28;20104;-72
2022/08/23 04:26:29;;;;;;;1.70;0.40;;;24.10;67.80;;;;;;5013653;28;20076;-72
2022/08/23 04:28:55;;;;;;;0.95;0.45;;;24.10;67.90;;;;;;5015092;28;20389;-72
2022/08/23 04:31:21;;;;;;;5.05;0.60;;;24.10;68.90;;;;;;5014655;28;20042;-72
2022/08/23 04:33:46;;;;;;;0.40;0.30;;;24.10;67.90;;;;;;5013676;28;20400;-72
2022/08/23 04:36:12;;;;;;;1.25;0.50;;;24.10;67.80;;;;;;5014650;28;20423;-72
2022/08/23 04:38:38;;;;;;;2.50;0.47;;;24.00;67.80;;;;;;5014860;28;20038;-72
2022/08/23 04:43:47;;;;;;;2.00;0.40;;;24.00;67.80;;;;;;5014658;28;20045;-72
2022/08/23 04:46:14;;;;;;;9.18;0.45;;;24.00;67.80;;;;;;5014456;28;20026;-72
2022/08/23 04:48:40;;;;;;;1.17;0.47;;;24.10;67.80;;;;;;5014761;28;20037;-72
2022/08/23 04:51:06;;;;;;;0.40;0.40;;;24.10;67.90;;;;;;5013320;28;20393;-72
2022/08/23 04:53:34;;;;;;;1.88;0.60;;;24.10;67.90;;;;;;5013330;28;20041;-72
2022/08/23 04:56:01;;;;;;;1.73;0.40;;;24.00;67.80;;;;;;5014509;28;20129;-72
2022/08/23 04:58:30;;;;;;;0.65;0.40;;;24.00;67.80;;;;;;5014175;28;20484;-72
2022/08/23 05:00:57;;;;;;;1.77;0.60;;;24.10;67.80;;;;;;5013873;28;20026;-72
2022/08/23 05:03:22;;;;;;;1.45;0.50;;;24.10;67.90;;;;;;5012921;28;20100;-72
2022/08/23 05:05:48;;;;;;;0.73;0.30;;;24.00;68.00;;;;;;5022859;28;20116;-72
2022/08/23 05:08:14;;;;;;;1.65;0.22;;;24.00;67.90;;;;;;5033672;28;20026;-72
2022/08/23 05:10:40;;;;;;;1.55;0.38;;;24.10;68.00;;;;;;5033847;28;20624;-72
2022/08/23 05:13:05;;;;;;;5.25;0.47;;;24.00;67.90;;;;;;5021167;28;20160;-72
2022/08/23 05:15:31;;;;;;;2.55;0.60;;;24.00;68.00;;;;;;5012460;28;20087;-72
2022/08/23 05:17:57;;;;;;;0.43;0.30;;;24.00;68.00;;;;;;5013669;28;20127;-72
2022/08/23 05:20:22;;;;;;;1.52;0.40;;;24.00;68.00;;;;;;5013869;28;20025;-72
2022/08/23 05:22:49;;;;;;;5.55;0.30;;;24.00;68.00;;;;;;5013792;28;20041;-72
2022/08/23 05:25:14;;;;;;;3.25;0.30;;;24.00;68.00;;;;;;5013476;28;20069;-71
2022/08/23 05:27:40;;;;;;;3.72;0.40;;;24.10;68.10;;;;;;5012569;28;20065;-71
2022/08/23 05:30:06;;;;;;;4.45;0.38;;;24.00;67.90;;;;;;5012345;28;20045;-71
2022/08/23 05:32:32;;;;;;;1.10;0.30;;;24.10;67.90;;;;;;5013397;28;20092;-71
2022/08/23 05:34:58;;;;;;;1.25;0.50;;;24.00;67.80;;;;;;5012224;28;20029;-71
2022/08/23 05:37:23;;;;;;;0.55;0.35;;;24.00;67.90;;;;;;5012290;28;20034;-71
2022/08/23 05:39:49;;;;;;;8.18;0.50;;;24.00;67.90;;;;;;5013468;28;20018;-71
2022/08/23 05:42:15;;;;;;;0.88;0.38;;;24.00;67.80;;;;;;5013247;28;20033;-71
2022/08/23 05:44:41;;;;;;;0.95;0.25;;;24.00;67.80;;;;;;5012041;28;20061;-71
2022/08/23 05:47:08;;;;;;;0.70;0.17;;;24.00;67.70;;;;;;5012009;28;20029;-71
2022/08/23 05:49:35;;;;;;;0.70;0.20;;;24.00;67.60;;;;;;5012096;28;20032;-71
2022/08/23 05:52:05;;;;;;;2.17;0.50;;;23.90;67.50;;;;;;5011984;28;20033;-72
2022/08/23 05:54:31;;;;;;;1.88;0.30;;;24.00;67.50;;;;;;5011954;28;20026;-72
2022/08/23 05:56:57;;;;;;;4.78;1.00;;;24.00;67.40;;;;;;5013246;28;20087;-72
2022/08/23 05:59:22;;;;;;;9.75;1.50;;;23.90;67.20;;;;;;5011533;28;20022;-71
2022/08/23 06:01:48;;;;;;;4.18;0.93;;;23.90;67.20;;;;;;5011569;28;20026;-71
2022/08/23 06:04:14;;;;;;;12.75;1.58;;;23.90;67.30;;;;;;5010762;28;20064;-71
2022/08/23 06:06:40;;;;;;;9.45;1.50;;;23.90;67.40;;;;;;5027841;28;20060;-71
2022/08/23 06:09:07;;;;;;;12.68;1.95;;;23.90;67.20;;;;;;5031313;28;20426;-71
2022/08/23 06:11:33;;;;;;;8.98;1.45;;;23.90;67.20;;;;;;5030633;28;20060;-71
2022/08/23 06:13:59;;;;;;;6.63;1.52;;;23.90;67.30;;;;;;5012425;28;20064;-71
2022/08/23 06:16:31;;;;;;;7.72;1.38;;;23.90;67.20;;;;;;5012075;28;20018;-71
2022/08/23 06:18:57;;;;;;;8.38;1.52;;;23.90;67.30;;;;;;5010828;28;20022;-71
2022/08/23 06:21:23;;;;;;;7.63;1.90;;;23.90;67.30;;;;;;5013305;28;20508;-71
2022/08/23 06:23:49;;;;;;;8.57;2.03;;;23.90;67.20;;;;;;5013166;28;20397;-71
2022/08/23 06:26:20;;;;;;;8.02;1.90;;;23.90;67.20;;;;;;5013131;28;20026;-71
2022/08/23 06:28:47;;;;;;;5.60;1.63;;;23.90;67.30;;;;;;5013009;28;20076;-71
2022/08/23 06:31:12;;;;;;;7.65;2.05;;;23.90;67.30;;;;;;5011655;28;20032;-71
2022/08/23 06:33:40;;;;;;;8.32;2.28;;;23.80;67.30;;;;;;5013066;28;20030;-71
2022/08/23 06:36:07;;;;;;;5.43;1.73;;;23.80;67.20;;;;;;5011794;28;20061;-71
2022/08/23 06:38:33;;;;;;;4.95;2.00;;;23.90;67.30;;;;;;5011655;28;20026;-71
2022/08/23 06:41:09;;;;;;;7.47;2.05;;;23.80;67.20;;;;;;5013049;28;20036;-71
2022/08/23 06:43:35;;;;;;;9.63;2.00;;;23.80;67.20;;;;;;5011552;28;20519;-71
2022/08/23 06:46:11;;;;;;;8.23;1.95;;;23.80;67.20;;;;;;5014976;28;20417;-71
2022/08/23 06:48:37;;;;;;;9.98;2.78;;;23.80;67.20;;;;;;5030963;28;20427;-71
2022/08/23 06:51:12;;;;;;;7.15;2.00;;;23.80;67.30;;;;;;5031380;28;20083;-71
2022/08/23 06:53:37;;;;;;;8.60;2.28;;;23.80;67.30;;;;;;5032448;28;20017;-71
2022/08/23 06:56:03;;;;;;;7.13;2.10;;;23.80;67.30;;;;;;5032022;28;20091;-71
2022/08/23 06:58:29;;;;;;;9.60;2.78;;;23.80;67.20;;;;;;5032419;28;20025;-71
2022/08/23 07:00:54;;;;;;;7.03;2.28;;;23.80;67.30;;;;;;5032580;28;20025;-71
2022/08/23 07:03:20;;;;;;;6.85;2.45;;;23.80;67.30;;;;;;5032296;28;20430;-71
2022/08/23 07:05:46;;;;;;;9.55;2.10;;;23.80;67.20;;;;;;5032281;28;20097;-71
2022/08/23 07:08:11;;;;;;;8.43;2.28;;;23.80;67.20;;;;;;5032121;28;20049;-71
2022/08/23 07:10:37;;;;;;;5.70;2.30;;;23.80;67.20;;;;;;5032214;28;20033;-71
2022/08/23 07:13:03;;;;;;;6.00;2.25;;;23.70;67.20;;;;;;5031378;28;20053;-71
2022/08/23 07:15:28;;;;;;;8.35;2.53;;;23.70;67.10;;;;;;5032046;28;20034;-71
2022/08/23 07:17:55;;;;;;;7.53;2.30;;;23.80;67.20;;;;;;5032364;28;20104;-71
2022/08/23 07:20:20;;;;;;;7.90;2.38;;;23.70;67.10;;;;;;5032027;28;20018;-71
2022/08/23 07:22:46;;;;;;;5.53;2.45;;;23.80;67.10;;;;;;5032152;28;20148;-71
2022/08/23 07:25:11;;;;;;;8.57;2.50;;;23.80;67.10;;;;;;5030616;28;20116;-71
2022/08/23 07:27:37;;;;;;;7.20;2.40;;;23.70;67.10;;;;;;5030990;28;20071;-71
2022/08/23 07:30:04;;;;;;;8.95;2.50;;;23.70;67.10;;;;;;5032020;28;20025;-71
2022/08/23 07:32:29;;;;;;;5.80;2.40;;;23.70;67.10;;;;;;5014366;28;20500;-71
2022/08/23 07:34:55;;;;;;;11.57;2.28;;;23.70;67.10;;;;;;5032285;28;20021;-71
2022/08/23 07:37:21;;;;;;;10.13;2.25;;;23.70;67.10;;;;;;5030771;28;20460;-71
2022/08/23 07:39:46;;;;;;;11.52;2.60;;;23.70;67.10;;;;;;5030736;28;20033;-71
2022/08/23 07:42:12;;;;;;;10.07;2.47;;;23.70;67.10;;;;;;5031991;28;20025;-71
2022/08/23 07:44:38;;;;;;;7.25;2.15;;;23.70;67.10;;;;;;5030720;28;20036;-71
2022/08/23 07:47:04;;;;;;;7.25;2.50;;;23.70;67.10;;;;;;5031892;28;20105;-71
2022/08/23 07:49:29;;;;;;;7.40;2.50;;;23.70;67.10;;;;;;5032136;28;20026;-71
2022/08/23 07:51:57;;;;;;;8.52;2.20;;;23.70;67.20;;;;;;5030797;28;20049;-71
2022/08/23 07:54:24;;;;;;;7.28;2.50;;;23.70;67.10;;;;;;5026763;28;20030;-71
2022/08/23 07:56:49;;;;;;;6.22;2.10;;;23.70;67.10;;;;;;5012386;28;20104;-71
2022/08/23 07:59:15;;;;;;;4.18;1.67;;;23.70;67.10;;;;;;5012212;28;20449;-71
2022/08/23 08:01:42;;;;;;;5.60;2.20;;;23.70;67.10;;;;;;5012400;28;20053;-71
2022/08/23 08:04:07;;;;;;;8.32;2.33;;;23.70;67.10;;;;;;5012117;28;20053;-71
2022/08/23 08:06:47;;;;;;;6.90;2.00;;;23.70;67.10;;;;;;5012115;28;20060;-71
2022/08/23 08:09:14;;;;;;;8.27;2.60;;;23.70;67.10;;;;;;5010652;28;20051;-71
2022/08/23 08:11:41;;;;;;;5.82;2.25;;;23.70;67.10;;;;;;5011034;28;20428;-71
2022/08/23 08:14:07;;;;;;;5.55;2.20;;;23.70;67.10;;;;;;5010790;28;20022;-71
2022/08/23 08:16:36;;;;;;;4.00;2.28;;;23.70;67.10;;;;;;5010757;28;20018;-71
2022/08/23 08:19:03;;;;;;;5.45;1.88;;;23.60;67.10;;;;;;5011923;28;20440;-71
2022/08/23 08:21:28;;;;;;;8.00;1.92;;;23.70;67.10;;;;;;5010735;28;20548;-71
2022/08/23 08:23:55;;;;;;;7.70;2.17;;;23.70;67.10;;;;;;5011620;28;20116;-71
2022/08/23 08:26:21;;;;;;;5.88;2.38;;;23.60;67.00;;;;;;5015291;28;20014;-71
2022/08/23 08:28:47;;;;;;;6.15;2.13;;;23.60;67.10;;;;;;5015419;28;20109;-71
2022/08/23 08:31:13;;;;;;;4.38;2.00;;;23.60;67.10;;;;;;5013763;28;20544;-71
2022/08/23 08:33:38;;;;;;;6.80;1.90;;;23.70;67.10;;;;;;5015238;28;20030;-71
2022/08/23 08:36:05;;;;;;;4.45;1.75;;;23.60;67.00;;;;;;5015261;28;20097;-71
2022/08/23 08:38:30;;;;;;;8.15;2.30;;;23.60;67.10;;;;;;5014888;28;20049;-71
2022/08/23 08:41:15;;;;;;;6.18;2.00;;;23.60;67.00;;;;;;5015214;28;20061;-71
2022/08/23 08:44:02;;;;;;;6.50;2.22;;;23.60;67.00;;;;;;5013928;28;20066;-71
2022/08/23 08:46:44;;;;;;;8.23;2.50;;;23.60;67.00;;;;;;5013923;28;20017;-71
2022/08/23 08:49:14;;;;;;;5.13;2.13;;;23.60;67.00;;;;;;4999057;28;20022;-71
2022/08/23 08:51:47;;;;;;;5.97;2.20;;;23.60;67.10;;;;;;5013948;28;20030;-71
2022/08/23 08:54:14;;;;;;;6.80;2.10;;;23.60;67.00;;;;;;5016786;28;20030;-71
2022/08/23 08:56:40;;;;;;;7.75;2.60;;;23.60;67.00;;;;;;5033775;28;20018;-71
2022/08/23 08:59:08;;;;;;;6.28;1.85;;;23.60;67.00;;;;;;5016996;28;20103;-71
2022/08/23 09:01:35;;;;;;;5.78;1.88;;;23.60;67.10;;;;;;5017155;28;20081;-71
2022/08/23 09:04:01;;;;;;;5.57;2.10;;;23.60;67.00;;;;;;5033221;28;20037;-71
2022/08/23 09:06:57;;;;;;;8.82;2.17;;;23.60;67.10;;;;;;5016698;28;20030;-71
2022/08/23 09:09:41;;;;;;;6.25;2.38;;;23.60;67.00;;;;;;5034165;28;20391;-71
2022/08/23 09:12:25;;;;;;;8.50;2.28;;;23.60;67.00;;;;;;5034517;28;20025;-71
2022/08/23 09:15:00;;;;;;;4.75;1.85;;;23.60;67.00;;;;;;5034446;28;20037;-71
2022/08/23 09:17:29;;;;;;;7.25;2.33;;;23.60;67.00;;;;;;5032899;28;20047;-71
2022/08/23 09:19:56;;;;;;;3.47;2.05;;;23.60;67.10;;;;;;5034192;28;20036;-71
2022/08/23 09:22:44;;;;;;;4.82;1.92;;;23.60;67.10;;;;;;5032864;28;20021;-71
2022/08/23 09:25:10;;;;;;;3.88;1.80;;;23.60;67.00;;;;;;5000551;28;20049;-71
2022/08/23 09:27:37;;;;;;;4.85;1.88;;;23.60;67.10;;;;;;5032833;28;20475;-71
2022/08/23 09:30:04;;;;;;;8.52;2.10;;;23.60;67.10;;;;;;5032724;28;20112;-71
2022/08/23 09:32:32;;;;;;;4.55;2.08;;;23.60;67.00;;;;;;5032575;28;20458;-71
2022/08/23 09:35:16;;;;;;;8.25;2.00;;;23.60;67.10;;;;;;5032668;28;20045;-72
2022/08/23 09:37:48;;;;;;;4.25;1.90;;;23.50;67.00;;;;;;5032800;28;20496;-71
2022/08/23 09:40:27;;;;;;;7.50;2.20;;;23.50;67.10;;;;;;5034123;28;20036;-71
2022/08/23 09:43:07;;;;;;;5.55;2.30;;;23.60;67.10;;;;;;5016674;28;20022;-71
2022/08/23 09:45:34;;;;;;;4.63;2.00;;;23.50;67.00;;;;;;5033764;28;20025;-71
2022/08/23 09:48:00;;;;;;;4.28;1.80;;;23.60;67.10;;;;;;5033439;28;20029;-71
2022/08/23 09:50:32;;;;;;;6.10;1.85;;;23.60;67.10;;;;;;5033271;28;20487;-71
2022/08/23 09:53:06;;;;;;;3.63;1.80;;;23.50;67.00;;;;;;5033950;28;20026;-71
2022/08/23 09:55:37;;;;;;;4.50;1.60;;;23.60;67.10;;;;;;5019294;28;20026;-71
2022/08/23 09:58:24;;;;;;;4.65;1.70;;;23.50;67.00;;;;;;5012662;28;20041;-71
2022/08/23 10:01:11;;;;;;;3.70;2.10;;;23.50;67.00;;;;;;5012494;28;20037;-71
2022/08/23 10:03:38;;;;;;;4.72;1.85;;;23.60;67.10;;;;;;5012344;28;20046;-71
2022/08/23 10:06:03;;;;;;;4.70;1.95;;;23.50;67.00;;;;;;5012211;28;20496;-71
2022/08/23 10:08:32;;;;;;;4.72;1.67;;;23.60;67.10;;;;;;5012206;28;20025;-71
2022/08/23 10:11:13;;;;;;;4.28;1.63;;;23.60;67.10;;;;;;5012399;28;20480;-71
2022/08/23 10:13:39;;;;;;;6.45;2.45;;;23.60;67.10;;;;;;5012167;28;20056;-71
2022/08/23 10:16:36;;;;;;;3.13;1.80;;;23.60;67.10;;;;;;5012360;28;20567;-71
2022/08/23 10:19:24;;;;;;;3.97;1.90;;;23.50;67.00;;;;;;5011980;28;20534;-71
2022/08/23 10:21:56;;;;;;;5.20;1.90;;;23.50;67.10;;;;;;5012174;28;20469;-71
2022/08/23 10:24:50;;;;;;;6.45;1.67;;;23.50;67.00;;;;;;5011859;28;20026;-71
2022/08/23 10:30:35;;;;;;;2.83;1.65;;;23.50;67.00;;;;;;5013123;28;20040;-71
2022/08/23 10:33:12;;;;;;;4.00;1.77;;;23.50;67.10;;;;;;5011841;28;20050;-71
2022/08/23 10:36:04;;;;;;;4.00;1.52;;;23.50;67.10;;;;;;5012744;28;20107;-71
2022/08/23 10:38:48;;;;;;;5.75;1.70;;;23.50;67.00;;;;;;5012919;28;20026;-71
2022/08/23 10:41:47;;;;;;;2.33;1.42;;;23.50;67.00;;;;;;5013010;28;20053;-71
2022/08/23 10:44:21;;;;;;;4.38;1.40;;;23.50;67.10;;;;;;5005143;28;20033;-71
2022/08/23 10:46:59;;;;;;;3.65;1.70;;;23.50;67.10;;;;;;5014924;28;20095;-71
2022/08/23 10:49:25;;;;;;;3.10;1.73;;;23.50;67.10;;;;;;5031203;28;20025;-71
2022/08/23 10:51:51;;;;;;;2.38;1.50;;;23.50;67.10;;;;;;5031482;28;20029;-71
2022/08/23 10:54:28;;;;;;;4.03;1.70;;;23.50;67.20;;;;;;5028443;28;20029;-71
2022/08/23 10:56:53;;;;;;;4.35;1.85;;;23.50;67.10;;;;;;5011920;28;20106;-71
2022/08/23 10:59:21;;;;;;;2.65;1.23;;;23.50;67.10;;;;;;5011527;28;20060;-71
2022/08/23 11:01:55;;;;;;;4.80;1.67;;;23.50;67.10;;;;;;5011624;28;20109;-71
2022/08/23 11:04:24;;;;;;;2.25;1.40;;;23.50;67.10;;;;;;5011367;28;20033;-71
2022/08/23 11:06:54;;;;;;;3.17;1.80;;;23.50;67.10;;;;;;5012603;28;20634;-71
2022/08/23 11:09:20;;;;;;;4.38;1.60;;;23.50;67.10;;;;;;5011498;28;20033;-71
2022/08/23 11:12:01;;;;;;;2.35;1.50;;;23.50;67.20;;;;;;5012536;28;20029;-71
2022/08/23 11:14:38;;;;;;;4.40;1.50;;;23.50;67.20;;;;;;5011140;28;20018;-71
2022/08/23 11:17:06;;;;;;;2.90;1.40;;;23.50;67.10;;;;;;5012461;28;20030;-71
2022/08/23 11:20:03;;;;;;;3.60;1.50;;;23.50;67.10;;;;;;5011219;28;20018;-71
2022/08/23 11:22:56;;;;;;;4.22;1.40;;;23.60;67.10;;;;;;5010329;28;20440;-71
2022/08/23 11:25:24;;;;;;;3.10;1.23;;;23.50;67.10;;;;;;5010346;28;20040;-71
2022/08/23 11:27:51;;;;;;;3.67;1.25;;;23.60;67.20;;;;;;5010194;28;20046;-71
2022/08/23 11:30:31;;;;;;;2.03;1.20;;;23.50;67.20;;;;;;4994042;28;20026;-71
2022/08/23 11:33:09;;;;;;;4.05;1.70;;;23.50;67.10;;;;;;5010102;28;20054;-71
2022/08/23 11:35:48;;;;;;;1.70;1.15;;;23.50;67.10;;;;;;4978599;28;20500;-71
2022/08/23 11:38:14;;;;;;;2.80;1.30;;;23.60;67.20;;;;;;5010371;28;20056;-71
2022/08/23 11:40:54;;;;;;;5.22;1.40;;;23.50;67.10;;;;;;5009990;28;20054;-71
2022/08/23 11:43:35;;;;;;;4.03;1.50;;;23.50;67.10;;;;;;5010409;28;20112;-71
2022/08/23 11:46:21;;;;;;;2.97;1.38;;;23.60;67.20;;;;;;5010005;28;20120;-72
2022/08/23 11:49:20;;;;;;;1.73;1.13;;;23.50;67.00;;;;;;5028289;28;20395;-71
2022/08/23 11:52:22;;;;;;;3.17;1.20;;;23.50;67.10;;;;;;5013215;28;20036;-71
2022/08/23 11:55:26;;;;;;;2.22;1.38;;;23.60;67.10;;;;;;5022759;28;20026;-71
2022/08/23 11:58:26;;;;;;;2.97;1.20;;;23.50;67.20;;;;;;4995055;28;20042;-71
2022/08/23 12:01:09;;;;;;;3.35;1.40;;;23.50;67.10;;;;;;5013694;28;20014;-71
2022/08/23 12:03:50;;;;;;;2.28;1.27;;;23.60;67.10;;;;;;5014690;28;20022;-71
2022/08/23 12:06:18;;;;;;;2.13;1.48;;;23.50;67.10;;;;;;5015992;28;20091;-71
2022/08/23 12:08:53;;;;;;;2.90;1.48;;;23.60;67.20;;;;;;5015617;28;20026;-71
2022/08/23 12:11:20;;;;;;;3.40;1.38;;;23.60;67.20;;;;;;5014523;28;20022;-71
2022/08/23 12:13:47;;;;;;;2.03;1.10;;;23.50;67.10;;;;;;5014332;28;20038;-71
2022/08/23 12:16:12;;;;;;;2.03;1.20;;;23.60;67.20;;;;;;5014248;28;20032;-71
2022/08/23 12:18:47;;;;;;;1.58;1.17;;;23.50;67.10;;;;;;5015526;28;20399;-71
2022/08/23 12:21:20;;;;;;;1.80;1.10;;;23.60;67.10;;;;;;5014515;28;20033;-71
2022/08/23 12:23:48;;;;;;;1.90;1.10;;;23.60;67.10;;;;;;5014249;28;20088;-71
2022/08/23 12:26:23;;;;;;;2.42;1.17;;;23.50;67.00;;;;;;5014218;28;20068;-71
2022/08/23 12:28:51;;;;;;;1.67;1.10;;;23.60;67.10;;;;;;5014282;28;20032;-71
2022/08/23 12:31:19;;;;;;;3.28;1.00;;;23.60;67.10;;;;;;5013851;28;20047;-71
2022/08/23 12:34:01;;;;;;;3.53;1.10;;;23.50;67.00;;;;;;5014063;28;20396;-71
2022/08/23 12:36:37;;;;;;;2.08;1.00;;;23.60;67.00;;;;;;5014091;28;20018;-71
2022/08/23 12:39:22;;;;;;;2.78;1.13;;;23.60;67.10;;;;;;5015325;28;20044;-71
2022/08/23 12:42:14;;;;;;;2.28;1.10;;;23.60;67.10;;;;;;5014342;28;20129;-71
2022/08/23 12:44:41;;;;;;;1.52;1.20;;;23.60;67.10;;;;;;5013608;28;20530;-71
2022/08/23 12:47:17;;;;;;;3.33;1.27;;;23.60;67.10;;;;;;5019582;28;20029;-71
2022/08/23 12:49:57;;;;;;;2.50;1.30;;;23.60;67.00;;;;;;5033478;28;20462;-71
2022/08/23 12:52:29;;;;;;;2.63;1.10;;;23.60;68.00;;;;;;5033727;28;20021;-71
2022/08/23 12:54:56;;;;;;;2.70;1.00;;;23.60;67.00;;;;;;5025638;28;20026;-71
2022/08/23 12:57:36;;;;;;;2.58;1.02;;;23.60;67.00;;;;;;5013687;28;20026;-71
2022/08/23 13:00:19;;;;;;;1.65;1.10;;;23.60;67.00;;;;;;4997140;28;20022;-72
2022/08/23 13:03:10;;;;;;;2.97;1.60;;;23.60;67.00;;;;;;5013532;28;20025;-71
2022/08/23 13:05:42;;;;;;;1.73;1.00;;;23.60;67.00;;;;;;5014709;28;20030;-71
2022/08/23 13:08:32;;;;;;;1.52;1.10;;;23.60;67.00;;;;;;5013612;28;20091;-71
2022/08/23 13:10:57;;;;;;;2.13;1.20;;;23.60;67.00;;;;;;5013489;28;20026;-71